createdAt,value
2022-12-08T00:02:34.636Z,77.97
2022-12-08T00:06:14.949Z,77.80
2022-12-08T00:09:40.840Z,77.12
2022-12-08T00:13:05.126Z,79.04
2022-12-08T00:16:26.919Z,77.98
2022-12-08T00:19:50.405Z,77.19
2022-12-08T00:23:12.092Z,78.01
2022-12-08T00:26:33.612Z,78.81
2022-12-08T00:29:55.123Z,78.21
2022-12-08T00:33:16.653Z,77.16
2022-12-08T00:36:40.521Z,77.05
2022-12-08T00:40:07.353Z,78.26
2022-12-08T00:43:30.988Z,77.82
2022-12-08T00:46:52.546Z,77.72
2022-12-08T00:50:14.330Z,78.89
2022-12-08T00:53:35.837Z,78.79
2022-12-08T00:56:57.576Z,79.79
2022-12-08T01:00:19.600Z,80.30
2022-12-08T01:03:44.512Z,78.44
2022-12-08T01:07:06.094Z,80.46
2022-12-08T01:10:30.356Z,79.04
2022-12-08T01:13:51.953Z,79.21
2022-12-08T01:17:13.545Z,78.74
2022-12-08T01:20:35.110Z,79.57
2022-12-08T01:23:58.209Z,80.47
2022-12-08T01:27:19.703Z,81.62
2022-12-08T01:30:41.338Z,80.06
2022-12-08T01:34:03.110Z,79.71
2022-12-08T01:37:24.758Z,79.22
2022-12-08T01:40:48.740Z,79.35
2022-12-08T01:44:12.818Z,80.41
2022-12-08T01:47:44.263Z,79.58
2022-12-08T01:51:06.823Z,79.42
2022-12-08T01:54:34.714Z,79.58
2022-12-08T01:58:02.635Z,79.31
2022-12-08T02:01:24.421Z,79.76
2022-12-08T02:04:46.050Z,79.81
2022-12-08T02:08:10.614Z,79.72
2022-12-08T02:11:32.328Z,79.12
2022-12-08T02:14:54.016Z,78.82
2022-12-08T02:18:40.567Z,78.45
2022-12-08T02:22:15.021Z,78.86
2022-12-08T02:25:54.670Z,78.69
2022-12-08T02:29:37.530Z,77.81
2022-12-08T02:33:28.042Z,78.34
2022-12-08T02:37:19.341Z,77.11
2022-12-08T02:41:19.397Z,77.52
2022-12-08T02:45:08.146Z,78.78
2022-12-08T02:48:30.698Z,79.53
2022-12-08T02:51:52.213Z,77.93
2022-12-08T02:55:52.557Z,78.41
2022-12-08T02:59:14.067Z,78.47
2022-12-08T03:02:54.248Z,78.47
2022-12-08T03:06:39.926Z,78.05
2022-12-08T03:10:12.880Z,76.94
2022-12-08T03:13:41.149Z,77.04
2022-12-08T03:17:04.640Z,77.70
2022-12-08T03:20:28.482Z,77.44
2022-12-08T03:23:53.394Z,78.75
2022-12-08T03:27:20.869Z,78.97
2022-12-08T03:30:48.514Z,78.83
2022-12-08T03:34:11.911Z,79.45
2022-12-08T03:37:35.983Z,79.99
2022-12-08T03:41:15.923Z,79.56
2022-12-08T03:44:37.465Z,79.60
2022-12-08T03:48:01.305Z,78.93
2022-12-08T03:51:23.869Z,79.47
2022-12-08T03:54:47.651Z,79.88
2022-12-08T03:58:09.263Z,80.64
2022-12-08T04:01:30.910Z,81.03
2022-12-08T04:04:52.747Z,80.20
2022-12-08T04:08:17.348Z,79.80
2022-12-08T04:11:39.053Z,78.69
2022-12-08T04:15:05.099Z,77.94
2022-12-08T04:18:26.682Z,79.40
2022-12-08T04:21:50.263Z,80.30
2022-12-08T04:25:11.772Z,80.66
2022-12-08T04:28:33.535Z,80.76
2022-12-08T04:32:01.344Z,80.83
2022-12-08T04:35:27.631Z,81.43
2022-12-08T04:38:49.542Z,80.79
2022-12-08T04:42:13.340Z,81.39
2022-12-08T04:45:34.942Z,81.06
2022-12-08T04:48:58.927Z,81.02
2022-12-08T04:52:23.710Z,80.71
2022-12-08T04:55:49.615Z,79.94
2022-12-08T04:59:11.177Z,79.10
2022-12-08T05:02:32.872Z,78.41
2022-12-08T05:05:59.041Z,78.70
2022-12-08T05:09:20.568Z,78.46
2022-12-08T05:12:42.146Z,78.54
2022-12-08T05:16:12.000Z,79.60
2022-12-08T05:19:36.048Z,79.30
2022-12-08T05:22:59.922Z,80.04
2022-12-08T05:26:21.500Z,79.88
2022-12-08T05:29:48.145Z,79.73
2022-12-08T05:33:09.934Z,80.00
2022-12-08T05:36:33.865Z,79.38
2022-12-08T05:39:55.436Z,80.46
2022-12-08T05:43:19.050Z,80.91
2022-12-08T05:46:42.977Z,81.01
2022-12-08T05:50:06.038Z,81.00
2022-12-08T05:53:30.298Z,81.40
2022-12-08T05:56:54.149Z,80.64
2022-12-08T06:00:16.108Z,80.96
2022-12-08T06:03:39.939Z,81.42
2022-12-08T06:07:01.771Z,81.36
2022-12-08T06:10:25.660Z,86.89
2022-12-08T06:13:50.062Z,90.40
2022-12-08T06:17:11.659Z,89.30
2022-12-08T06:20:34.851Z,85.69
2022-12-08T06:23:56.385Z,84.36
2022-12-08T06:27:17.937Z,85.30
2022-12-08T06:30:39.442Z,76.38
2022-12-08T06:34:04.261Z,76.97
2022-12-08T06:37:25.806Z,77.45
2022-12-08T06:41:00.387Z,78.27
2022-12-08T06:44:22.002Z,78.82
2022-12-08T06:47:47.071Z,78.69
2022-12-08T06:51:17.404Z,79.09
2022-12-08T06:54:38.947Z,79.40
2022-12-08T06:58:00.427Z,79.44
2022-12-08T07:01:22.388Z,79.28
2022-12-08T07:04:44.081Z,79.89
2022-12-08T07:08:08.245Z,79.91
2022-12-08T07:11:32.045Z,80.96
2022-12-08T07:14:53.733Z,88.94
2022-12-08T07:18:15.314Z,88.71
2022-12-08T07:21:37.105Z,86.36
2022-12-08T07:24:58.687Z,85.72
2022-12-08T07:28:20.243Z,83.14
2022-12-08T07:31:44.819Z,84.68
2022-12-08T07:35:07.599Z,77.21
2022-12-08T07:38:32.337Z,76.73
2022-12-08T07:41:53.897Z,77.96
2022-12-08T07:45:15.483Z,78.45
2022-12-08T07:48:37.030Z,79.11
2022-12-08T07:52:00.918Z,79.45
2022-12-08T07:55:22.597Z,79.94
2022-12-08T07:58:46.793Z,79.91
2022-12-08T08:02:25.961Z,80.89
2022-12-08T08:05:50.222Z,80.97
2022-12-08T08:09:11.924Z,86.14
2022-12-08T08:12:33.593Z,85.81
2022-12-08T08:15:55.343Z,85.62
2022-12-08T08:19:16.929Z,83.85
2022-12-08T08:22:38.481Z,74.13
2022-12-08T08:26:01.963Z,68.01
2022-12-08T08:29:23.749Z,68.02
2022-12-08T08:32:48.869Z,67.02
2022-12-08T08:36:11.050Z,70.15
2022-12-08T08:39:32.686Z,72.13
2022-12-08T08:42:54.269Z,73.63
2022-12-08T08:46:15.871Z,73.60
2022-12-08T08:49:37.836Z,73.88
2022-12-08T08:53:04.537Z,74.55
2022-12-08T08:56:26.410Z,74.60
2022-12-08T08:59:47.920Z,74.80
2022-12-08T09:03:09.548Z,76.23
2022-12-08T09:06:31.328Z,76.69
2022-12-08T09:09:55.797Z,76.80
2022-12-08T09:13:23.971Z,76.93
2022-12-08T09:16:45.602Z,77.65
2022-12-08T09:20:07.885Z,77.22
2022-12-08T09:23:35.453Z,76.40
2022-12-08T09:26:59.756Z,77.72
2022-12-08T09:30:24.059Z,77.90
2022-12-08T09:33:45.754Z,78.38
2022-12-08T09:37:10.362Z,77.76
2022-12-08T09:40:36.699Z,77.37
2022-12-08T09:44:44.296Z,77.94
2022-12-08T09:48:34.216Z,77.63
2022-12-08T09:51:58.949Z,77.74
2022-12-08T09:55:34.097Z,77.06
2022-12-08T09:59:01.550Z,77.48
2022-12-08T10:02:25.339Z,78.12
2022-12-08T10:05:57.835Z,77.75
2022-12-08T10:09:29.136Z,78.06
2022-12-08T10:13:23.668Z,77.95
2022-12-08T10:16:54.694Z,78.33
2022-12-08T10:20:18.208Z,77.53
2022-12-08T10:23:45.642Z,79.28
2022-12-08T10:27:12.266Z,80.48
2022-12-08T10:30:33.794Z,80.35
2022-12-08T10:34:00.348Z,79.68
2022-12-08T10:37:21.969Z,78.06
2022-12-08T10:40:45.929Z,78.66
2022-12-08T10:44:09.798Z,77.74
2022-12-08T10:47:37.214Z,77.09
2022-12-08T10:51:00.577Z,77.42
2022-12-08T10:54:38.386Z,77.57
2022-12-08T10:57:59.873Z,77.77
2022-12-08T11:01:26.788Z,77.96
2022-12-08T11:04:59.395Z,77.45
2022-12-08T11:08:21.077Z,76.55
2022-12-08T11:12:06.408Z,76.13
2022-12-08T11:15:34.475Z,75.54
2022-12-08T11:19:03.701Z,73.91
2022-12-08T11:22:32.823Z,69.43
2022-12-08T11:26:01.433Z,70.09
2022-12-08T11:29:23.221Z,69.94
2022-12-08T11:32:47.662Z,71.50
2022-12-08T11:36:12.856Z,70.14
2022-12-08T11:39:36.460Z,69.97
2022-12-08T11:43:21.426Z,69.95
2022-12-08T11:46:56.949Z,76.96
2022-12-08T11:50:30.949Z,73.51
2022-12-08T11:54:03.310Z,73.74
2022-12-08T11:57:28.657Z,75.47
2022-12-08T12:00:50.275Z,76.82
2022-12-08T12:04:18.055Z,69.56
2022-12-08T12:07:51.678Z,65.67
2022-12-08T12:11:38.437Z,67.44
2022-12-08T12:15:21.157Z,68.25
2022-12-08T12:18:50.120Z,69.37
2022-12-08T12:22:18.368Z,69.86
2022-12-08T12:25:52.849Z,70.06
2022-12-08T12:29:23.777Z,69.05
2022-12-08T12:32:53.711Z,70.01
2022-12-08T12:36:15.788Z,70.03
2022-12-08T12:39:52.468Z,69.67
2022-12-08T12:43:27.661Z,70.02
2022-12-08T12:46:53.350Z,70.19
2022-12-08T12:50:38.991Z,69.02
2022-12-08T12:54:23.964Z,68.75
2022-12-08T12:57:57.299Z,68.53
2022-12-08T13:01:21.765Z,69.68
2022-12-08T13:05:06.368Z,68.78
2022-12-08T13:08:28.499Z,69.06
2022-12-08T13:11:53.413Z,68.51
2022-12-08T13:15:19.661Z,68.39
2022-12-08T13:18:49.594Z,69.64
2022-12-08T13:22:46.948Z,69.56
2022-12-08T13:26:16.355Z,70.16
2022-12-08T13:29:39.137Z,70.76
2022-12-08T13:33:17.721Z,71.29
2022-12-08T13:36:47.726Z,70.62
2022-12-08T13:40:15.389Z,71.46
2022-12-08T13:44:30.968Z,71.29
2022-12-08T13:48:20.306Z,71.53
2022-12-08T13:56:43.348Z,72.24
2022-12-08T13:59:30.313Z,71.57
2022-12-08T14:02:59.908Z,72.09
2022-12-08T14:06:35.393Z,71.67
2022-12-08T14:09:59.836Z,71.31
2022-12-08T14:13:27.482Z,72.48
2022-12-08T14:16:54.005Z,72.25
2022-12-08T14:20:24.551Z,72.65
2022-12-08T14:23:46.053Z,72.74
2022-12-08T14:27:13.641Z,72.70
2022-12-08T14:30:41.027Z,72.52
2022-12-08T14:34:05.136Z,72.69
2022-12-08T14:37:31.180Z,72.89
2022-12-08T14:41:01.784Z,73.38
2022-12-08T14:44:24.454Z,72.69
2022-12-08T14:47:46.192Z,72.72
2022-12-08T14:51:14.661Z,72.68
2022-12-08T14:54:39.200Z,72.77
2022-12-08T14:58:01.158Z,72.44
2022-12-08T15:01:25.753Z,72.98
2022-12-08T15:04:50.276Z,73.17
2022-12-08T15:08:14.750Z,72.47
2022-12-08T15:11:36.390Z,72.99
2022-12-08T15:15:12.340Z,73.15
2022-12-08T15:18:42.192Z,74.10
2022-12-08T15:22:21.599Z,74.56
2022-12-08T15:25:45.584Z,74.32
2022-12-08T15:29:18.647Z,74.34
2022-12-08T15:32:42.778Z,73.93
2022-12-08T15:36:04.645Z,73.59
2022-12-08T15:39:38.347Z,74.05
2022-12-08T15:43:02.434Z,73.73
2022-12-08T15:46:26.329Z,74.03
2022-12-08T15:49:49.642Z,73.68
2022-12-08T15:53:11.270Z,73.69
2022-12-08T15:56:34.477Z,74.44
2022-12-08T15:59:58.986Z,74.33
2022-12-08T16:04:09.029Z,73.90
2022-12-08T16:07:21.438Z,74.04
2022-12-08T16:11:29.148Z,90.04
2022-12-08T16:18:17.045Z,85.92
2022-12-08T16:22:17.629Z,77.04
2022-12-08T16:25:22.048Z,74.04
2022-12-08T16:28:53.899Z,76.76
2022-12-08T16:32:18.994Z,69.09
2022-12-08T16:35:41.950Z,70.17
2022-12-08T16:39:06.108Z,72.57
2022-12-08T16:42:50.170Z,74.74
2022-12-08T16:46:20.625Z,75.39
2022-12-08T16:49:44.410Z,76.05
2022-12-08T16:53:09.198Z,76.07
2022-12-08T16:56:33.732Z,83.88
2022-12-08T16:59:58.023Z,83.93
2022-12-08T17:03:19.619Z,82.46
2022-12-08T17:06:41.273Z,81.03
2022-12-08T17:10:06.340Z,78.70
2022-12-08T17:13:30.210Z,81.58
2022-12-08T17:16:51.810Z,80.00
2022-12-08T17:20:17.594Z,80.03
2022-12-08T17:23:42.867Z,80.90
2022-12-08T17:27:06.908Z,78.87
2022-12-08T17:30:28.449Z,73.11
2022-12-08T17:33:50.543Z,73.81
2022-12-08T17:37:15.498Z,73.23
2022-12-08T17:40:37.080Z,74.02
2022-12-08T17:43:58.663Z,75.14
2022-12-08T17:47:22.920Z,75.46
2022-12-08T17:50:45.078Z,76.39
2022-12-08T17:54:08.761Z,89.87
2022-12-08T17:57:31.008Z,88.07
2022-12-08T18:00:53.178Z,74.84
2022-12-08T18:04:15.019Z,74.47
2022-12-08T18:07:36.569Z,74.81
2022-12-08T18:11:00.653Z,74.77
2022-12-08T18:14:22.320Z,75.37
2022-12-08T18:17:43.915Z,75.09
2022-12-08T18:21:08.335Z,74.76
2022-12-08T18:24:32.186Z,74.99
2022-12-08T18:27:53.768Z,75.40
2022-12-08T18:31:17.934Z,74.28
2022-12-08T18:34:42.622Z,83.95
2022-12-08T18:38:04.157Z,81.79
2022-12-08T18:41:26.269Z,79.21
2022-12-08T18:44:56.185Z,79.03
2022-12-08T18:48:17.717Z,77.98
2022-12-08T18:51:39.855Z,77.42
2022-12-08T18:55:06.635Z,78.14
2022-12-08T18:58:28.905Z,72.77
2022-12-08T19:01:50.794Z,69.38
2022-12-08T19:05:13.578Z,69.50
2022-12-08T19:08:38.138Z,69.78
2022-12-08T19:12:02.631Z,71.35
2022-12-08T19:15:24.491Z,71.65
2022-12-08T19:18:46.394Z,72.84
2022-12-08T19:22:10.384Z,74.51
2022-12-08T19:25:34.299Z,74.51
2022-12-08T19:28:56.223Z,74.71
2022-12-08T19:32:17.804Z,75.18
2022-12-08T19:35:39.694Z,83.54
2022-12-08T19:39:21.732Z,81.27
2022-12-08T19:43:01.950Z,79.17
2022-12-08T19:46:27.105Z,79.92
2022-12-08T19:49:48.885Z,77.99
2022-12-08T19:53:13.658Z,77.08
2022-12-08T19:56:35.242Z,79.97
2022-12-08T19:59:56.782Z,71.24
2022-12-08T20:03:22.898Z,71.30
2022-12-08T20:06:45.432Z,72.14
2022-12-08T20:10:11.858Z,73.01
2022-12-08T20:13:43.780Z,74.14
2022-12-08T20:17:05.403Z,75.04
2022-12-08T20:20:27.491Z,75.87
2022-12-08T20:23:51.283Z,75.36
2022-12-08T20:27:12.846Z,85.18
2022-12-08T20:30:34.881Z,81.73
2022-12-08T20:33:58.716Z,81.63
2022-12-08T20:37:20.278Z,79.90
2022-12-08T20:40:47.102Z,78.61
2022-12-08T20:44:09.151Z,80.24
2022-12-08T20:47:33.047Z,78.45
2022-12-08T20:50:55.085Z,72.20
2022-12-08T20:54:16.892Z,72.38
2022-12-08T20:57:38.611Z,73.71
2022-12-08T21:01:07.727Z,74.36
2022-12-08T21:04:29.848Z,75.42
2022-12-08T21:07:51.537Z,75.95
2022-12-08T21:11:18.638Z,76.42
2022-12-08T21:14:42.965Z,76.48
2022-12-08T21:18:04.771Z,76.55
2022-12-08T21:21:26.564Z,76.90
2022-12-08T21:24:48.449Z,76.94
2022-12-08T21:28:10.883Z,77.73
2022-12-08T21:31:33.632Z,84.96
2022-12-08T21:34:57.635Z,83.85
2022-12-08T21:38:21.561Z,82.54
2022-12-08T21:42:06.635Z,82.90
2022-12-08T21:45:30.884Z,83.46
2022-12-08T21:48:54.789Z,80.19
2022-12-08T21:52:18.708Z,81.98
2022-12-08T21:55:40.447Z,73.84
2022-12-08T21:59:02.133Z,74.87
2022-12-08T22:02:24.011Z,75.39
2022-12-08T22:05:46.115Z,76.47
2022-12-08T22:09:13.421Z,77.29
2022-12-08T22:12:36.528Z,77.00
2022-12-08T22:16:02.709Z,76.91
2022-12-08T22:19:24.808Z,76.55
2022-12-08T22:22:49.195Z,76.41
2022-12-08T22:26:11.785Z,77.32
2022-12-08T22:29:35.747Z,77.63
2022-12-08T22:32:57.574Z,77.97
2022-12-08T22:36:24.548Z,78.39
2022-12-08T22:39:49.575Z,78.46
2022-12-08T22:43:11.181Z,78.08
2022-12-08T22:46:32.993Z,77.88
2022-12-08T22:49:56.977Z,78.20
2022-12-08T22:53:18.578Z,78.63
2022-12-08T22:56:40.087Z,79.36
2022-12-08T23:00:04.183Z,79.39
2022-12-08T23:03:26.287Z,79.09
2022-12-08T23:06:48.241Z,79.58
2022-12-08T23:10:10.913Z,79.15
2022-12-08T23:13:32.815Z,78.90
2022-12-08T23:16:54.670Z,78.42
2022-12-08T23:20:16.508Z,79.06
2022-12-08T23:23:41.070Z,79.70
2022-12-08T23:27:05.080Z,79.74
2022-12-08T23:30:26.718Z,79.73
2022-12-08T23:33:48.676Z,80.23
2022-12-08T23:37:10.316Z,79.84
2022-12-08T23:40:34.739Z,79.18
2022-12-08T23:43:56.462Z,79.22
2022-12-08T23:47:18.109Z,79.05
2022-12-08T23:50:39.707Z,78.97
2022-12-08T23:54:08.866Z,78.97
2022-12-08T23:57:33.103Z,80.17
